Time;durP1;ratioP1;P1;durP2;ratioP2;P2;SDS_P1;SDS_P2;PMS_P1;PMS_P2;Temp;Humidity;BMP_temperature;BMP_pressure;BME280_temperature;BME280_humidity;BME280_pressure;Samples;Min_cycle;Max_cycle;Signal;HPM_P1;HPM_P2
2022/09/08 00:00:56;;;;;;;8.63;5.67;;;;;;;18.81;100.00;101605.75;2087858;28;20578;-67
2022/09/08 00:01:57;;;;;;;6.33;5.37;;;;;;;18.83;100.00;101615.25;2080467;28;20185;-67
2022/09/08 00:03:01;;;;;;;12.07;6.10;;;;;;;18.84;100.00;101607.63;2080477;28;20193;-67
2022/09/08 00:04:04;;;;;;;7.97;5.70;;;;;;;18.19;100.00;101506.88;2079680;28;20284;-67
2022/09/08 00:05:07;;;;;;;8.77;5.57;;;;;;;18.83;100.00;101620.88;2079135;28;20936;-67
2022/09/08 00:06:12;;;;;;;6.97;5.57;;;;;;;18.82;100.00;101605.28;2078327;28;20435;-67
2022/09/08 00:07:12;;;;;;;7.97;5.10;;;;;;;18.83;100.00;101614.50;2080039;28;20435;-67
2022/09/08 00:08:15;;;;;;;7.50;5.60;;;;;;;18.83;100.00;101606.06;2080582;28;21054;-67
2022/09/08 00:09:15;;;;;;;6.00;5.37;;;;;;;18.72;100.00;101595.28;2079931;28;20270;-67
2022/09/08 00:10:17;;;;;;;8.80;5.30;;;;;;;18.79;100.00;101613.84;2080809;28;20436;-67
2022/09/08 00:11:22;;;;;;;7.10;5.40;;;;;;;18.79;100.00;101611.81;2080400;28;20181;-67
2022/09/08 00:12:24;;;;;;;8.97;5.57;;;;;;;18.80;100.00;101607.78;2080834;28;20434;-67
2022/09/08 00:13:26;;;;;;;7.43;5.77;;;;;;;18.79;100.00;101603.38;2080426;28;20451;-67
2022/09/08 00:14:29;;;;;;;7.97;5.47;;;;;;;18.80;100.00;101609.78;2080170;28;20444;-67
2022/09/08 00:15:30;;;;;;;8.50;5.60;;;;;;;18.78;100.00;101615.88;2080012;28;20530;-67
2022/09/08 00:16:31;;;;;;;7.53;5.50;;;;;;;18.78;100.00;101618.69;2079467;28;20439;-67
2022/09/08 00:17:32;;;;;;;9.13;5.70;;;;;;;18.78;100.00;101613.06;2080236;28;20188;-67
2022/09/08 00:18:34;;;;;;;7.80;5.50;;;;;;;18.77;100.00;101611.50;2079674;28;20451;-67
2022/09/08 00:19:35;;;;;;;7.43;5.40;;;;;;;18.74;100.00;101609.66;2079791;28;20714;-67
2022/09/08 00:20:35;;;;;;;8.57;5.47;;;;;;;18.64;100.00;101610.06;2079607;28;20842;-67
2022/09/08 00:21:36;;;;;;;7.43;5.33;;;;;;;18.59;100.00;101619.09;2080790;28;20196;-67
2022/09/08 00:22:36;;;;;;;8.57;5.40;;;;;;;18.59;100.00;101611.47;2080280;28;20181;-67
2022/09/08 00:23:37;;;;;;;6.50;5.80;;;;;;;18.49;100.00;101611.91;2080377;28;20192;-67
2022/09/08 00:24:37;;;;;;;5.97;5.37;;;;;;;18.44;100.00;101613.31;2079979;28;20189;-67
2022/09/08 00:25:38;;;;;;;6.37;5.63;;;;;;;18.52;100.00;101622.97;2079770;28;20200;-67
2022/09/08 00:26:39;;;;;;;8.67;6.17;;;;;;;18.46;100.00;101613.59;2079981;28;20983;-67
2022/09/08 00:27:39;;;;;;;7.37;5.83;;;;;;;18.52;100.00;101622.97;2079964;28;20899;-67
2022/09/08 00:28:40;;;;;;;7.23;5.43;;;;;;;18.54;100.00;101625.31;2079173;28;20185;-67
2022/09/08 00:29:40;;;;;;;7.43;5.80;;;;;;;18.45;100.00;101605.63;2080796;28;20693;-67
2022/09/08 00:30:41;;;;;;;7.97;5.37;;;;;;;18.55;100.00;101624.88;2080315;28;20191;-67
2022/09/08 00:31:41;;;;;;;11.17;6.17;;;;;;;18.55;100.00;101622.06;2080440;28;20189;-67
2022/09/08 00:32:42;;;;;;;11.20;5.67;;;;;;;18.55;100.00;101624.88;2080389;28;20209;-67
2022/09/08 00:33:42;;;;;;;9.80;5.80;;;;;;;18.56;100.00;101620.81;2080442;28;20212;-67
2022/09/08 00:34:43;;;;;;;8.87;5.63;;;;;;;18.53;100.00;101620.97;2079832;28;20193;-67
2022/09/08 00:35:44;;;;;;;7.80;5.57;;;;;;;18.32;100.00;101583.31;2078732;28;20185;-67
2022/09/08 00:36:44;;;;;;;8.23;5.73;;;;;;;18.54;100.00;101622.53;2079562;28;20193;-67
2022/09/08 00:37:46;;;;;;;7.87;5.57;;;;;;;18.56;100.00;101618.00;2080382;28;20188;-67
2022/09/08 00:38:52;;;;;;;8.60;5.87;;;;;;;18.52;100.00;101619.41;2080393;28;20196;-67
2022/09/08 00:39:52;;;;;;;6.07;5.10;;;;;;;18.54;100.00;101623.31;2080339;28;20447;-67
2022/09/08 00:40:53;;;;;;;6.93;5.50;;;;;;;17.53;100.00;101466.25;2079892;28;20952;-67
2022/09/08 00:41:57;;;;;;;6.10;5.20;;;;;;;18.58;100.00;101621.13;2080163;28;20247;-67
2022/09/08 00:43:04;;;;;;;7.70;6.00;;;;;;;17.88;100.00;101496.94;2080266;28;20191;-67
2022/09/08 00:44:48;;;;;;;9.27;5.93;;;;;;;18.60;100.00;101615.84;2080393;28;20987;-67
2022/09/08 00:45:48;;;;;;;7.87;5.60;;;;;;;18.58;100.00;101606.31;2078628;28;20999;-67
2022/09/08 00:46:50;;;;;;;8.43;5.90;;;;;;;18.08;100.00;101543.00;2080252;28;20826;-67
2022/09/08 00:48:05;;;;;;;10.10;5.80;;;;;;;18.57;100.00;101613.19;2080034;28;20638;-67
2022/09/08 00:49:11;;;;;;;6.70;5.90;;;;;;;18.59;100.00;101607.88;2079693;28;20419;-67
2022/09/08 00:50:21;;;;;;;8.63;5.77;;;;;;;18.60;100.00;101617.84;2080170;28;20455;-67
2022/09/08 00:51:24;;;;;;;12.80;5.77;;;;;;;18.63;100.00;101619.75;2079801;28;20462;-67
2022/09/08 00:52:27;;;;;;;9.50;6.40;;;;;;;18.62;100.00;101621.75;2080199;28;20436;-67
2022/09/08 00:53:27;;;;;;;6.40;5.70;;;;;;;18.62;100.00;101616.16;2079940;28;20451;-67
2022/09/08 00:54:28;;;;;;;8.97;5.60;;;;;;;18.64;100.00;101624.13;2079375;28;20439;-67
2022/09/08 00:55:32;;;;;;;7.67;5.37;;;;;;;18.65;100.00;101628.47;2079563;28;20201;-67
2022/09/08 00:56:33;;;;;;;8.50;5.47;;;;;;;18.66;100.00;101627.22;2078704;28;20194;-67
2022/09/08 00:57:33;;;;;;;7.67;5.70;;;;;;;18.65;100.00;101623.66;2079090;28;20979;-67
2022/09/08 00:58:41;;;;;;;10.00;5.30;;;;;;;18.67;100.00;101626.78;2079452;28;20910;-67
2022/09/08 00:59:45;;;;;;;9.97;6.00;;;;;;;18.61;100.00;101620.22;2080157;28;20655;-67
2022/09/08 01:00:46;;;;;;;13.37;6.17;;;;;;;18.68;100.00;101624.75;2079763;28;20427;-67
2022/09/08 01:01:47;;;;;;;14.87;6.40;;;;;;;18.70;100.00;101619.44;2080275;28;21134;-67
2022/09/08 01:02:48;;;;;;;6.37;5.53;;;;;;;18.67;100.00;101623.97;2080167;28;20200;-67
2022/09/08 01:03:48;;;;;;;10.50;5.57;;;;;;;18.57;100.00;101599.16;2079206;28;20207;-67
2022/09/08 01:04:52;;;;;;;10.47;5.47;;;;;;;18.62;100.00;101621.75;2079373;28;20439;-67
2022/09/08 01:06:09;;;;;;;11.93;6.30;;;;;;;18.65;100.00;101617.25;2079311;28;20192;-67
2022/09/08 01:13:28;;;;;;;9.83;5.60;;;;;;;18.47;100.00;101612.34;2079222;28;20410;-67
2022/09/08 01:14:46;;;;;;;6.73;4.90;;;;;;;18.47;100.00;101611.59;2079958;28;20935;-67
2022/09/08 01:15:47;;;;;;;9.73;4.60;;;;;;;18.47;100.00;101614.41;2079493;28;20431;-67
2022/09/08 01:16:49;;;;;;;8.87;5.27;;;;;;;18.47;100.00;101605.97;2079680;28;20435;-67
2022/09/08 01:17:52;;;;;;;7.63;4.77;;;;;;;18.48;100.00;101610.34;2080554;28;20247;-67
2022/09/08 01:18:56;;;;;;;8.37;4.73;;;;;;;18.28;100.00;101582.66;2079607;28;20489;-67
2022/09/08 01:19:59;;;;;;;8.63;5.27;;;;;;;18.45;100.00;101606.44;2079948;28;20832;-67
2022/09/08 01:21:06;;;;;;;10.43;5.37;;;;;;;17.82;100.00;101507.97;2079676;28;20458;-67
2022/09/08 01:22:40;;;;;;;11.30;5.43;;;;;;;18.42;100.00;101604.53;2079764;28;20803;-67
2022/09/08 01:23:56;;;;;;;6.50;4.57;;;;;;;18.38;100.00;101603.13;2080360;28;20928;-67
2022/09/08 01:25:18;;;;;;;8.70;5.40;;;;;;;18.35;100.00;101609.66;2078772;28;20427;-67
2022/09/08 01:26:35;;;;;;;8.03;5.10;;;;;;;18.36;100.00;101614.03;2077639;28;20419;-67
2022/09/08 01:27:38;;;;;;;9.80;4.83;;;;;;;18.30;100.00;101611.03;2079603;28;20479;-67
2022/09/08 01:28:47;;;;;;;6.87;4.80;;;;;;;17.88;100.00;101545.38;2079722;28;20434;-67
2022/09/08 01:29:51;;;;;;;7.57;5.23;;;;;;;18.13;100.00;101576.81;2079261;28;20423;-67
2022/09/08 01:30:53;;;;;;;6.80;4.97;;;;;;;18.26;100.00;101607.56;2080083;28;20852;-67
2022/09/08 01:31:58;;;;;;;8.07;4.97;;;;;;;18.23;100.00;101603.66;2079758;28;20888;-67
2022/09/08 01:33:01;;;;;;;7.20;5.13;;;;;;;18.22;100.00;101604.13;2078310;28;21093;-67
2022/09/08 01:34:02;;;;;;;7.83;5.30;;;;;;;18.18;100.00;101607.06;2079423;28;20438;-67
2022/09/08 01:35:03;;;;;;;7.43;5.10;;;;;;;17.86;100.00;101559.06;2078881;28;20497;-67
2022/09/08 01:36:10;;;;;;;8.30;5.43;;;;;;;18.13;100.00;101604.88;2078791;28;20496;-67
2022/09/08 01:37:11;;;;;;;8.57;5.43;;;;;;;17.36;100.00;101492.91;2079177;28;20534;-67
2022/09/08 01:38:12;;;;;;;5.97;4.77;;;;;;;17.50;100.00;101519.63;2079824;28;20462;-67
2022/09/08 01:39:12;;;;;;;12.53;5.63;;;;;;;17.88;100.00;101575.44;2078629;28;20940;-67
2022/09/08 01:40:13;;;;;;;8.33;5.87;;;;;;;18.04;100.00;101601.25;2079971;28;20254;-67
2022/09/08 01:41:13;;;;;;;7.60;5.60;;;;;;;18.01;100.00;101607.75;2079374;28;20279;-67
2022/09/08 01:42:14;;;;;;;8.33;5.70;;;;;;;17.96;100.00;101610.41;2079706;28;20192;-67
2022/09/08 01:43:14;;;;;;;7.87;6.30;;;;;;;17.92;100.00;101611.31;2080230;28;20181;-67
2022/09/08 01:44:15;;;;;;;9.00;5.57;;;;;;;17.94;100.00;101613.66;2080127;28;20655;-67
2022/09/08 01:45:15;;;;;;;9.63;5.80;;;;;;;16.95;100.00;101448.44;2078820;28;20196;-67
2022/09/08 01:46:16;;;;;;;7.37;5.23;;;;;;;17.99;100.00;101615.88;2079218;28;20184;-67
2022/09/08 01:47:16;;;;;;;7.00;5.40;;;;;;;18.00;100.00;101609.00;2079679;28;20254;-67
2022/09/08 01:48:17;;;;;;;9.67;5.97;;;;;;;17.98;100.00;101605.91;2080136;28;20199;-67
2022/09/08 01:49:17;;;;;;;8.30;5.70;;;;;;;17.97;100.00;101626.75;2078354;28;20199;-67
2022/09/08 01:50:18;;;;;;;10.70;5.90;;;;;;;17.98;100.00;101602.28;2079321;28;20186;-67
2022/09/08 01:51:19;;;;;;;7.70;5.60;;;;;;;17.98;100.00;101602.28;2079446;28;20187;-67
2022/09/08 01:52:19;;;;;;;8.43;6.60;;;;;;;17.62;100.00;101555.22;2080242;28;20228;-67
2022/09/08 01:53:20;;;;;;;9.83;5.87;;;;;;;17.96;100.00;101599.19;2078563;28;20624;-67
2022/09/08 01:54:20;;;;;;;9.63;5.83;;;;;;;17.96;100.00;101599.19;2079702;28;20184;-67
2022/09/08 01:55:21;;;;;;;10.87;6.30;;;;;;;17.88;100.00;101611.91;2079113;28;20793;-67
2022/09/08 01:56:21;;;;;;;12.60;6.30;;;;;;;17.92;100.00;101606.94;2078716;28;20199;-67
2022/09/08 01:57:21;;;;;;;13.37;8.17;;;;;;;17.88;100.00;101600.69;2078953;28;20246;-67
2022/09/08 01:58:22;;;;;;;15.57;6.87;;;;;;;17.83;100.00;101598.47;2078193;28;20184;-67
2022/09/08 01:59:23;;;;;;;15.63;6.50;;;;;;;17.87;100.00;101605.53;2078571;28;20752;-67
2022/09/08 02:00:24;;;;;;;12.43;6.60;;;;;;;17.87;100.00;101613.16;2080286;28;20181;-67
2022/09/08 02:01:24;;;;;;;12.90;6.67;;;;;;;17.86;100.00;101614.41;2079774;28;20200;-67
2022/09/08 02:02:25;;;;;;;9.87;6.43;;;;;;;17.56;100.00;101565.44;2078433;28;20197;-67
2022/09/08 02:03:26;;;;;;;10.00;6.00;;;;;;;17.89;100.00;101611.44;2079788;28;20251;-67
2022/09/08 02:04:26;;;;;;;9.80;6.27;;;;;;;17.89;100.00;101611.44;2078811;28;20197;-67
2022/09/08 02:05:26;;;;;;;13.30;7.30;;;;;;;17.88;100.00;101610.66;2079258;28;20239;-67
2022/09/08 02:06:27;;;;;;;14.50;7.37;;;;;;;17.88;100.00;101610.66;2078916;28;20196;-67
2022/09/08 02:07:27;;;;;;;19.30;8.13;;;;;;;17.91;100.00;101616.59;2078931;28;20207;-67
2022/09/08 02:08:29;;;;;;;12.97;8.40;;;;;;;17.89;100.00;101622.66;2079601;28;20181;-67
2022/09/08 02:09:30;;;;;;;16.33;6.90;;;;;;;17.88;100.00;101605.03;2079501;28;20203;-67
2022/09/08 02:10:31;;;;;;;13.03;6.53;;;;;;;17.88;100.00;101610.66;2079651;28;20522;-67
2022/09/08 02:11:32;;;;;;;13.70;6.10;;;;;;;17.89;100.00;101611.44;2079468;28;20215;-67
2022/09/08 02:12:33;;;;;;;11.87;6.17;;;;;;;17.90;100.00;101606.63;2079556;28;20191;-67
2022/09/08 02:13:33;;;;;;;12.30;6.83;;;;;;;17.86;100.00;101603.94;2079338;28;20230;-67
2022/09/08 02:14:35;;;;;;;12.90;6.90;;;;;;;17.81;100.00;101598.16;2078608;28;20956;-67
2022/09/08 02:15:35;;;;;;;11.63;6.80;;;;;;;17.80;100.00;101605.00;2078350;28;20182;-67
2022/09/08 02:16:36;;;;;;;13.63;6.53;;;;;;;17.80;100.00;101599.41;2079250;28;20935;-67
2022/09/08 02:17:36;;;;;;;10.53;6.70;;;;;;;17.80;100.00;101602.22;2079997;28;20179;-67
2022/09/08 02:18:38;;;;;;;10.67;6.40;;;;;;;17.81;100.00;101598.94;2079614;28;20586;-67
2022/09/08 02:19:39;;;;;;;12.53;7.37;;;;;;;17.81;100.00;101606.56;2079567;28;20200;-67
2022/09/08 02:20:39;;;;;;;12.53;6.90;;;;;;;17.77;100.00;101595.50;2078901;28;20446;-67
2022/09/08 02:21:40;;;;;;;9.60;6.87;;;;;;;17.80;100.00;101602.97;2078902;28;20243;-67
2022/09/08 02:22:41;;;;;;;11.27;7.10;;;;;;;17.80;100.00;101611.38;2079789;28;20197;-67
2022/09/08 02:23:45;;;;;;;12.40;6.90;;;;;;;17.80;100.00;101602.22;2079306;28;20222;-67
2022/09/08 02:24:45;;;;;;;10.57;7.13;;;;;;;17.75;100.00;101581.13;2078798;28;20172;-67
2022/09/08 02:25:46;;;;;;;12.33;7.37;;;;;;;17.82;100.00;101591.31;2079417;28;20423;-67
2022/09/08 02:26:46;;;;;;;9.57;7.00;;;;;;;17.64;100.00;101572.34;2078812;28;20590;-67
2022/09/08 02:27:46;;;;;;;11.70;7.00;;;;;;;17.81;100.00;101596.13;2079150;28;20294;-67
2022/09/08 02:28:48;;;;;;;9.33;6.73;;;;;;;17.82;100.00;101605.31;2079428;28;20548;-67
2022/09/08 02:29:49;;;;;;;10.87;6.50;;;;;;;17.81;100.00;101603.78;2079873;28;20196;-67
2022/09/08 02:30:49;;;;;;;9.07;6.00;;;;;;;17.75;100.00;101588.78;2081476;28;20439;-67
2022/09/08 02:31:50;;;;;;;10.20;6.27;;;;;;;17.67;100.00;101583.44;2081200;28;20576;-67
2022/09/08 02:32:51;;;;;;;7.13;6.13;;;;;;;17.67;100.00;101584.66;2080599;28;20204;-67
2022/09/08 02:33:52;;;;;;;10.57;6.27;;;;;;;17.75;100.00;101600.00;2080893;28;20207;-67
2022/09/08 02:34:52;;;;;;;8.40;5.73;;;;;;;17.74;100.00;101607.63;2081095;28;20924;-67
2022/09/08 02:35:53;;;;;;;9.13;5.73;;;;;;;17.73;100.00;101610.88;2079396;28;20796;-67
2022/09/08 02:36:54;;;;;;;8.70;5.77;;;;;;;17.72;100.00;101603.72;2080178;28;20638;-67
2022/09/08 02:37:54;;;;;;;10.13;5.90;;;;;;;17.72;100.00;101612.13;2080871;28;20490;-67
2022/09/08 02:38:55;;;;;;;11.00;6.47;;;;;;;17.69;100.00;101605.41;2080709;28;20278;-67
2022/09/08 02:39:56;;;;;;;8.40;5.87;;;;;;;17.70;100.00;101609.75;2081514;28;20199;-67
2022/09/08 02:40:57;;;;;;;8.70;6.10;;;;;;;17.71;100.00;101605.72;2079939;28;20431;-67
2022/09/08 02:41:57;;;;;;;8.50;5.77;;;;;;;17.70;100.00;101601.34;2081384;28;20189;-67
2022/09/08 02:42:59;;;;;;;7.10;6.27;;;;;;;17.71;100.00;101599.34;2081627;28;20180;-67
2022/09/08 02:44:00;;;;;;;9.63;5.73;;;;;;;17.71;100.00;101597.31;2080051;28;20707;-67
2022/09/08 02:45:01;;;;;;;8.47;5.70;;;;;;;17.62;100.00;101576.84;2079863;28;20861;-67
2022/09/08 02:46:06;;;;;;;8.77;5.97;;;;;;;17.69;100.00;101599.78;2080135;28;20185;-67
2022/09/08 02:47:06;;;;;;;8.80;6.07;;;;;;;17.68;100.00;101592.63;2081132;28;20192;-67
2022/09/08 02:48:07;;;;;;;9.43;5.80;;;;;;;17.67;100.00;101590.28;2081179;28;20446;-67
2022/09/08 02:49:12;;;;;;;9.33;6.10;;;;;;;17.67;100.00;101597.44;2080739;28;20266;-67
2022/09/08 02:50:12;;;;;;;8.93;5.57;;;;;;;17.66;100.00;101597.13;2081258;28;20435;-67
2022/09/08 02:51:17;;;;;;;9.20;5.80;;;;;;;17.66;100.00;101585.91;2081103;28;20418;-67
2022/09/08 02:52:17;;;;;;;7.00;5.60;;;;;;;17.61;100.00;101581.66;2080800;28;20189;-67
2022/09/08 02:53:18;;;;;;;9.70;5.93;;;;;;;17.65;100.00;101587.94;2081514;28;20478;-67
2022/09/08 02:54:18;;;;;;;8.77;5.77;;;;;;;17.66;100.00;101594.31;2081188;28;20269;-67
2022/09/08 02:55:19;;;;;;;7.93;5.83;;;;;;;17.66;100.00;101583.13;2080231;28;20632;-67
2022/09/08 02:56:19;;;;;;;9.17;6.10;;;;;;;16.80;100.00;101450.19;2080491;28;20279;-67
2022/09/08 02:57:20;;;;;;;9.53;6.23;;;;;;;17.67;100.00;101595.88;2079788;28;20200;-67
2022/09/08 02:58:20;;;;;;;9.43;6.17;;;;;;;17.67;100.00;101587.47;2081026;28;20282;-67
2022/09/08 02:59:21;;;;;;;11.03;6.20;;;;;;;17.67;100.00;101589.03;2080667;28;20226;-67
2022/09/08 03:00:21;;;;;;;12.67;6.53;;;;;;;17.33;100.00;101547.06;2081068;28;20200;-67
2022/09/08 03:01:22;;;;;;;8.27;6.10;;;;;;;16.69;100.00;101444.22;2081548;28;20662;-67
2022/09/08 03:02:23;;;;;;;7.93;6.20;;;;;;;17.66;100.00;101603.50;2081465;28;20267;-67
2022/09/08 03:03:24;;;;;;;9.60;5.90;;;;;;;17.65;100.00;101596.34;2080302;28;20223;-67
2022/09/08 03:04:26;;;;;;;8.33;5.97;;;;;;;17.65;100.00;101595.56;2080410;28;20201;-67
2022/09/08 03:05:27;;;;;;;10.33;6.13;;;;;;;17.65;100.00;101599.13;2080515;28;20196;-67
2022/09/08 03:06:27;;;;;;;12.50;6.10;;;;;;;17.67;100.00;101602.28;2080007;28;20966;-67
2022/09/08 03:07:28;;;;;;;10.30;6.17;;;;;;;17.65;100.00;101599.13;2080751;28;20887;-67
2022/09/08 03:08:29;;;;;;;13.57;6.47;;;;;;;17.10;100.00;101519.50;2080818;28;20263;-67
2022/09/08 03:09:30;;;;;;;12.40;6.50;;;;;;;17.66;100.00;101597.91;2080224;28;20271;-67
2022/09/08 03:10:32;;;;;;;12.57;6.43;;;;;;;17.67;100.00;101607.91;2081503;28;20421;-67
2022/09/08 03:11:33;;;;;;;14.43;6.60;;;;;;;17.67;100.00;101604.28;2080376;28;20789;-67
2022/09/08 03:12:34;;;;;;;10.97;6.60;;;;;;;17.66;100.00;101605.53;2080775;28;20439;-67
2022/09/08 03:13:35;;;;;;;12.03;5.90;;;;;;;17.62;100.00;101602.09;2080862;28;20563;-67
2022/09/08 03:14:36;;;;;;;9.13;5.57;;;;;;;17.54;100.00;101593.16;2080271;28;20191;-67
2022/09/08 03:15:38;;;;;;;12.27;6.00;;;;;;;17.48;100.00;101600.59;2080474;28;20505;-67
2022/09/08 03:16:39;;;;;;;14.67;6.23;;;;;;;17.43;100.00;101598.38;2079904;28;20187;-67
2022/09/08 03:17:39;;;;;;;11.60;6.60;;;;;;;17.25;100.00;101573.78;2080573;28;20795;-67
2022/09/08 03:18:40;;;;;;;12.90;6.60;;;;;;;17.36;100.00;101599.38;2081114;28;20427;-67
2022/09/08 03:19:40;;;;;;;8.63;6.30;;;;;;;17.37;100.00;101597.38;2081095;28;20537;-67
2022/09/08 03:20:42;;;;;;;11.53;6.13;;;;;;;17.39;100.00;101597.72;2081093;28;20206;-67
2022/09/08 03:21:42;;;;;;;9.27;6.67;;;;;;;17.39;100.00;101599.75;2080835;28;20545;-67
2022/09/08 03:22:43;;;;;;;8.67;6.13;;;;;;;17.39;100.00;101602.56;2080679;28;20518;-67
2022/09/08 03:23:46;;;;;;;9.07;6.43;;;;;;;17.12;100.00;101561.06;2080582;28;20196;-67
2022/09/08 03:24:47;;;;;;;14.20;7.17;;;;;;;17.37;100.00;101603.72;2080094;28;20455;-67
2022/09/08 03:25:48;;;;;;;14.13;6.83;;;;;;;17.40;100.00;101590.09;2079721;28;20520;-67
2022/09/08 03:26:48;;;;;;;10.63;6.80;;;;;;;17.40;100.00;101587.28;2080131;28;20672;-67
2022/09/08 03:27:49;;;;;;;16.97;6.80;;;;;;;17.38;100.00;101590.53;2081127;28;20839;-67
2022/09/08 03:28:49;;;;;;;11.83;6.67;;;;;;;17.35;100.00;101591.41;2080497;28;20262;-67
2022/09/08 03:29:50;;;;;;;13.53;6.90;;;;;;;17.34;100.00;101590.66;2080792;28;20193;-67
2022/09/08 03:30:51;;;;;;;10.97;6.33;;;;;;;17.35;100.00;101600.63;2079889;28;20220;-67
2022/09/08 03:31:51;;;;;;;10.33;6.17;;;;;;;17.34;100.00;101595.47;2080919;28;20216;-67
2022/09/08 03:32:52;;;;;;;14.13;7.80;;;;;;;17.34;100.00;101598.25;2080318;28;20544;-67
2022/09/08 03:33:53;;;;;;;14.97;7.10;;;;;;;17.34;100.00;101589.84;2080243;28;20207;-67
2022/09/08 03:34:54;;;;;;;15.00;6.70;;;;;;;17.36;100.00;101598.59;2080096;28;20614;-67
2022/09/08 03:35:54;;;;;;;16.00;7.17;;;;;;;17.29;100.00;101596.84;2080348;28;20427;-67
2022/09/08 03:36:55;;;;;;;15.33;6.90;;;;;;;17.36;100.00;101590.97;2081012;28;20188;-67
2022/09/08 03:37:55;;;;;;;16.10;7.97;;;;;;;16.92;100.00;101532.56;2080879;28;20195;-67
2022/09/08 03:38:56;;;;;;;12.73;7.30;;;;;;;17.41;100.00;101600.06;2080326;28;20206;-67
2022/09/08 03:39:56;;;;;;;12.13;7.07;;;;;;;17.41;100.00;101603.66;2080030;28;20191;-67
2022/09/08 03:40:57;;;;;;;12.63;6.50;;;;;;;17.41;100.00;101612.06;2079958;28;20751;-67
2022/09/08 03:41:57;;;;;;;8.53;6.50;;;;;;;17.40;100.00;101607.69;2081010;28;20197;-67
2022/09/08 03:42:57;;;;;;;10.30;6.23;;;;;;;17.37;100.00;101614.94;2080451;28;20188;-67
2022/09/08 03:43:58;;;;;;;9.53;6.47;;;;;;;17.35;100.00;101605.44;2080451;28;20192;-67
2022/09/08 03:44:58;;;;;;;8.80;6.13;;;;;;;17.24;100.00;101602.22;2080469;28;20274;-67
2022/09/08 03:45:59;;;;;;;8.83;6.70;;;;;;;17.31;100.00;101613.19;2079541;28;20208;-67
2022/09/08 03:46:59;;;;;;;10.97;6.43;;;;;;;17.06;100.00;101583.25;2080351;28;20192;-67
2022/09/08 03:48:00;;;;;;;12.23;6.67;;;;;;;16.41;100.00;101486.38;2080959;28;20219;-67
2022/09/08 03:49:01;;;;;;;14.03;6.50;;;;;;;17.23;100.00;101621.06;2079301;28;20189;-67
2022/09/08 03:50:02;;;;;;;10.43;6.73;;;;;;;17.24;100.00;101622.63;2080163;28;20199;-67
2022/09/08 03:51:15;;;;;;;11.27;7.23;;;;;;;17.24;100.00;101627.44;2080825;28;20191;-67
2022/09/08 03:52:15;;;;;;;13.10;7.47;;;;;;;17.19;100.00;101619.63;2079669;28;20222;-67
2022/09/08 03:53:16;;;;;;;13.13;6.90;;;;;;;17.15;100.00;101616.94;2080435;28;20497;-67
2022/09/08 03:55:39;;;;;;;12.17;7.43;;;;;;;17.16;100.00;101626.16;2079834;28;20651;-67
2022/09/08 03:56:40;;;;;;;12.43;7.33;;;;;;;17.16;100.00;101637.34;2080199;28;20811;-67
2022/09/08 03:57:40;;;;;;;14.43;7.17;;;;;;;17.16;100.00;101628.94;2080989;28;20453;-67
2022/09/08 03:58:42;;;;;;;12.07;7.23;;;;;;;17.17;100.00;101631.28;2080615;28;20573;-67
2022/09/08 03:59:52;;;;;;;11.60;7.67;;;;;;;17.18;100.00;101638.47;2080044;28;20178;-67
2022/09/08 04:00:53;;;;;;;12.60;7.50;;;;;;;17.15;100.00;101635.75;2079981;28;20810;-67
2022/09/08 04:01:53;;;;;;;11.00;7.27;;;;;;;17.12;100.00;101650.69;2080389;28;20436;-67
2022/09/08 04:02:54;;;;;;;11.93;7.70;;;;;;;17.18;100.00;101641.25;2080858;28;20192;-67
2022/09/08 04:03:54;;;;;;;8.93;7.10;;;;;;;17.21;100.00;101639.56;2079913;28;20622;-67
2022/09/08 04:04:57;;;;;;;11.57;7.13;;;;;;;17.22;100.00;101639.09;2079591;28;20606;-67
2022/09/08 04:05:59;;;;;;;9.47;6.97;;;;;;;17.25;100.00;101634.59;2078930;28;20854;-67
2022/09/08 04:07:00;;;;;;;10.57;7.47;;;;;;;17.02;100.00;101601.44;2079626;28;20447;-67
2022/09/08 04:08:00;;;;;;;13.63;7.30;;;;;;;17.30;100.00;101639.63;2080600;28;20462;-67
2022/09/08 04:09:01;;;;;;;11.63;6.97;;;;;;;17.32;100.00;101645.56;2079770;28;20209;-67
2022/09/08 04:10:02;;;;;;;10.60;6.80;;;;;;;17.34;100.00;101643.88;2080778;28;20574;-67
2022/09/08 04:11:05;;;;;;;12.70;7.10;;;;;;;17.37;100.00;101642.19;2080375;28;20242;-67
2022/09/08 04:12:06;;;;;;;10.80;6.73;;;;;;;17.37;100.00;101642.19;2080647;28;20518;-67
2022/09/08 04:13:07;;;;;;;12.77;7.10;;;;;;;17.37;100.00;101636.59;2080438;28;21018;-67
2022/09/08 04:14:08;;;;;;;12.37;6.67;;;;;;;17.36;100.00;101635.81;2080737;28;21115;-67
2022/09/08 04:15:11;;;;;;;12.63;6.73;;;;;;;17.38;100.00;101635.34;2079333;28;20191;-67
2022/09/08 04:16:12;;;;;;;10.43;6.80;;;;;;;17.36;100.00;101640.63;2079236;28;20200;-67
2022/09/08 04:17:12;;;;;;;11.07;6.77;;;;;;;17.37;100.00;101633.78;2080855;28;20469;-67
2022/09/08 04:18:13;;;;;;;12.23;7.03;;;;;;;17.36;100.00;101633.00;2080398;28;20193;-67
2022/09/08 04:19:13;;;;;;;11.40;6.90;;;;;;;17.36;100.00;101626.63;2080098;28;20199;-67
2022/09/08 04:20:16;;;;;;;13.63;6.70;;;;;;;17.37;100.00;101633.78;2080549;28;20280;-67
2022/09/08 04:21:17;;;;;;;14.20;7.63;;;;;;;17.36;100.00;101626.63;2080257;28;20584;-67
2022/09/08 04:22:19;;;;;;;11.47;6.77;;;;;;;17.37;100.00;101631.00;2079544;28;20545;-67
2022/09/08 04:23:19;;;;;;;13.40;6.70;;;;;;;17.37;100.00;101623.34;2080050;28;20237;-67
2022/09/08 04:24:20;;;;;;;14.30;6.60;;;;;;;17.40;100.00;101627.28;2077945;28;20458;-67
2022/09/08 04:25:22;;;;;;;11.50;6.80;;;;;;;17.40;100.00;101620.91;2078698;28;20190;-67
2022/09/08 04:26:23;;;;;;;9.37;6.50;;;;;;;17.40;100.00;101616.09;2079232;28;20279;-67
2022/09/08 04:27:24;;;;;;;14.93;7.07;;;;;;;16.81;100.00;101530.13;2079409;28;20455;-67
2022/09/08 04:28:24;;;;;;;8.80;7.10;;;;;;;16.61;100.00;101489.69;2079921;28;20205;-67
2022/09/08 04:29:26;;;;;;;13.83;7.07;;;;;;;17.42;100.00;101616.44;2079150;28;20215;-67
2022/09/08 04:30:26;;;;;;;11.27;7.07;;;;;;;17.43;100.00;101620.78;2079504;28;20193;-67
2022/09/08 04:31:27;;;;;;;11.33;7.00;;;;;;;17.46;100.00;101617.09;2079343;28;20428;-67
2022/09/08 04:32:27;;;;;;;11.37;6.07;;;;;;;17.49;100.00;101618.19;2079510;28;20242;-66
2022/09/08 04:33:27;;;;;;;9.23;6.10;;;;;;;17.49;100.00;101618.97;2079057;28;20190;-66
2022/09/08 04:34:28;;;;;;;11.63;6.03;;;;;;;17.51;100.00;101624.88;2079630;28;20207;-66
2022/09/08 04:35:29;;;;;;;7.00;5.63;;;;;;;17.52;100.00;101616.03;2079069;28;20218;-66
2022/09/08 04:36:30;;;;;;;9.70;5.90;;;;;;;17.53;100.00;101617.59;2079011;28;20189;-67
2022/09/08 04:37:31;;;;;;;7.83;6.10;;;;;;;17.54;100.00;101618.38;2079531;28;20194;-67
2022/09/08 04:38:31;;;;;;;8.87;6.47;;;;;;;17.52;100.00;101616.03;2079497;28;20973;-67
2022/09/08 04:39:33;;;;;;;12.93;6.80;;;;;;;17.54;100.00;101618.38;2079053;28;20200;-67
2022/09/08 04:40:34;;;;;;;12.47;7.00;;;;;;;17.55;100.00;101614.31;2077299;28;21700;-67
2022/09/08 04:41:35;;;;;;;20.87;7.20;;;;;;;16.81;100.00;101513.34;2074116;28;20455;-66
2022/09/08 04:42:36;;;;;;;21.40;7.63;;;;;;;17.55;100.00;101625.53;2078615;28;20427;-67
2022/09/08 04:43:37;;;;;;;14.93;7.50;;;;;;;17.49;100.00;101609.78;2078685;28;20553;-67
2022/09/08 04:44:37;;;;;;;16.73;7.07;;;;;;;17.05;100.00;101544.53;2076432;28;20459;-67
2022/09/08 04:45:38;;;;;;;15.97;6.60;;;;;;;17.60;100.00;101624.19;2075964;28;20225;-67
2022/09/08 04:46:38;;;;;;;9.97;5.80;;;;;;;17.59;100.00;101626.19;2076830;28;20266;-66
2022/09/08 04:47:39;;;;;;;10.13;6.67;;;;;;;17.59;100.00;101634.59;2077605;28;20196;-66
2022/09/08 04:48:41;;;;;;;9.93;6.00;;;;;;;17.59;100.00;101626.19;2076286;28;20201;-67
2022/09/08 04:49:41;;;;;;;12.13;6.07;;;;;;;17.58;100.00;101628.22;2078070;28;20203;-66
2022/09/08 04:50:42;;;;;;;10.90;6.60;;;;;;;17.58;100.00;101626.66;2076436;28;20933;-66
2022/09/08 04:51:43;;;;;;;7.73;5.93;;;;;;;17.57;100.00;101639.09;2077278;28;20207;-66